sensor_id;sensor_type;location;lat;lon;timestamp;P1;durP1;ratioP1;P2;durP2;ratioP2
75087;SDS011;63664;44.868;40.600;2023-03-23T00:01:14;16.67;;;7.72;;
75087;SDS011;63664;44.868;40.600;2023-03-23T00:03:47;18.15;;;7.82;;
75087;SDS011;63664;44.868;40.600;2023-03-23T00:06:15;12.95;;;6.70;;
75087;SDS011;63664;44.868;40.600;2023-03-23T00:08:44;12.05;;;7.13;;
75087;SDS011;63664;44.868;40.600;2023-03-23T00:13:44;13.90;;;6.82;;
75087;SDS011;63664;44.868;40.600;2023-03-23T00:16:12;14.93;;;7.90;;
75087;SDS011;63664;44.868;40.600;2023-03-23T00:18:44;15.55;;;7.10;;
75087;SDS011;63664;44.868;40.600;2023-03-23T00:21:13;12.88;;;7.18;;
75087;SDS011;63664;44.868;40.600;2023-03-23T00:23:42;12.52;;;6.97;;
75087;SDS011;63664;44.868;40.600;2023-03-23T00:26:10;15.00;;;8.10;;
75087;SDS011;63664;44.868;40.600;2023-03-23T00:28:40;16.63;;;8.05;;
75087;SDS011;63664;44.868;40.600;2023-03-23T00:31:12;14.13;;;7.20;;
75087;SDS011;63664;44.868;40.600;2023-03-23T00:33:48;16.10;;;7.95;;
75087;SDS011;63664;44.868;40.600;2023-03-23T00:36:18;18.77;;;7.80;;
75087;SDS011;63664;44.868;40.600;2023-03-23T00:38:49;15.18;;;7.53;;
75087;SDS011;63664;44.868;40.600;2023-03-23T00:41:19;19.55;;;7.88;;
75087;SDS011;63664;44.868;40.600;2023-03-23T00:43:47;13.85;;;7.53;;
75087;SDS011;63664;44.868;40.600;2023-03-23T00:46:13;14.20;;;7.45;;
75087;SDS011;63664;44.868;40.600;2023-03-23T00:48:40;14.88;;;8.00;;
75087;SDS011;63664;44.868;40.600;2023-03-23T00:51:12;14.88;;;7.82;;
75087;SDS011;63664;44.868;40.600;2023-03-23T00:53:39;13.68;;;7.80;;
75087;SDS011;63664;44.868;40.600;2023-03-23T00:56:08;19.23;;;7.65;;
75087;SDS011;63664;44.868;40.600;2023-03-23T00:58:35;12.48;;;7.63;;
75087;SDS011;63664;44.868;40.600;2023-03-23T01:01:07;18.35;;;7.35;;
75087;SDS011;63664;44.868;40.600;2023-03-23T01:03:40;17.75;;;8.15;;
75087;SDS011;63664;44.868;40.600;2023-03-23T01:06:06;12.05;;;7.03;;
75087;SDS011;63664;44.868;40.600;2023-03-23T01:08:41;13.00;;;7.65;;
75087;SDS011;63664;44.868;40.600;2023-03-23T01:11:12;15.93;;;7.60;;
75087;SDS011;63664;44.868;40.600;2023-03-23T01:13:40;16.13;;;7.50;;
75087;SDS011;63664;44.868;40.600;2023-03-23T01:16:08;15.18;;;7.60;;
75087;SDS011;63664;44.868;40.600;2023-03-23T01:18:36;18.33;;;8.27;;
75087;SDS011;63664;44.868;40.600;2023-03-23T01:21:05;14.05;;;7.47;;
75087;SDS011;63664;44.868;40.600;2023-03-23T01:23:38;15.57;;;7.25;;
75087;SDS011;63664;44.868;40.600;2023-03-23T01:26:11;14.52;;;6.95;;
75087;SDS011;63664;44.868;40.600;2023-03-23T01:28:43;12.90;;;7.53;;
75087;SDS011;63664;44.868;40.600;2023-03-23T01:33:41;13.52;;;7.35;;
75087;SDS011;63664;44.868;40.600;2023-03-23T01:36:13;20.05;;;7.88;;
75087;SDS011;63664;44.868;40.600;2023-03-23T01:38:44;11.82;;;7.15;;
75087;SDS011;63664;44.868;40.600;2023-03-23T01:41:15;15.98;;;7.35;;
75087;SDS011;63664;44.868;40.600;2023-03-23T01:46:32;13.93;;;7.28;;
75087;SDS011;63664;44.868;40.600;2023-03-23T01:49:25;19.20;;;7.28;;
75087;SDS011;63664;44.868;40.600;2023-03-23T01:51:53;13.48;;;7.57;;
75087;SDS011;63664;44.868;40.600;2023-03-23T01:54:36;20.45;;;7.55;;
75087;SDS011;63664;44.868;40.600;2023-03-23T01:57:10;18.20;;;7.22;;
75087;SDS011;63664;44.868;40.600;2023-03-23T01:59:45;14.25;;;7.07;;
75087;SDS011;63664;44.868;40.600;2023-03-23T02:02:25;16.90;;;6.97;;
75087;SDS011;63664;44.868;40.600;2023-03-23T02:04:57;13.10;;;6.70;;
75087;SDS011;63664;44.868;40.600;2023-03-23T02:07:32;15.00;;;8.05;;
75087;SDS011;63664;44.868;40.600;2023-03-23T02:10:04;18.77;;;8.20;;
75087;SDS011;63664;44.868;40.600;2023-03-23T02:12:33;18.45;;;7.45;;
75087;SDS011;63664;44.868;40.600;2023-03-23T02:15:01;19.27;;;7.93;;
75087;SDS011;63664;44.868;40.600;2023-03-23T02:34:17;20.58;;;8.52;;
75087;SDS011;63664;44.868;40.600;2023-03-23T02:37:05;13.73;;;7.25;;
75087;SDS011;63664;44.868;40.600;2023-03-23T02:39:58;17.95;;;7.32;;
75087;SDS011;63664;44.868;40.600;2023-03-23T02:42:54;14.55;;;7.85;;
75087;SDS011;63664;44.868;40.600;2023-03-23T02:45:23;15.05;;;8.25;;
75087;SDS011;63664;44.868;40.600;2023-03-23T02:47:53;13.95;;;7.72;;
75087;SDS011;63664;44.868;40.600;2023-03-23T02:52:52;14.60;;;7.95;;
75087;SDS011;63664;44.868;40.600;2023-03-23T02:55:20;19.73;;;7.78;;
75087;SDS011;63664;44.868;40.600;2023-03-23T03:00:19;21.77;;;7.32;;
75087;SDS011;63664;44.868;40.600;2023-03-23T03:02:53;15.60;;;7.93;;
75087;SDS011;63664;44.868;40.600;2023-03-23T03:05:26;22.83;;;9.25;;
75087;SDS011;63664;44.868;40.600;2023-03-23T03:11:15;19.25;;;8.63;;
75087;SDS011;63664;44.868;40.600;2023-03-23T03:13:40;18.20;;;8.48;;
75087;SDS011;63664;44.868;40.600;2023-03-23T03:16:40;16.50;;;8.68;;
75087;SDS011;63664;44.868;40.600;2023-03-23T03:19:32;17.20;;;8.27;;
75087;SDS011;63664;44.868;40.600;2023-03-23T03:22:06;19.90;;;8.32;;
75087;SDS011;63664;44.868;40.600;2023-03-23T03:24:42;14.77;;;7.95;;
75087;SDS011;63664;44.868;40.600;2023-03-23T03:27:13;14.00;;;7.97;;
75087;SDS011;63664;44.868;40.600;2023-03-23T03:32:31;18.20;;;8.65;;
75087;SDS011;63664;44.868;40.600;2023-03-23T03:35:05;20.88;;;8.07;;
75087;SDS011;63664;44.868;40.600;2023-03-23T03:37:35;14.85;;;7.80;;
75087;SDS011;63664;44.868;40.600;2023-03-23T03:40:08;15.80;;;7.43;;
75087;SDS011;63664;44.868;40.600;2023-03-23T03:42:39;14.55;;;7.90;;
75087;SDS011;63664;44.868;40.600;2023-03-23T03:45:12;15.85;;;8.02;;
75087;SDS011;63664;44.868;40.600;2023-03-23T03:47:41;15.00;;;8.55;;
75087;SDS011;63664;44.868;40.600;2023-03-23T03:50:08;15.82;;;8.63;;
75087;SDS011;63664;44.868;40.600;2023-03-23T03:52:37;15.23;;;7.20;;
75087;SDS011;63664;44.868;40.600;2023-03-23T03:55:10;18.58;;;8.35;;
75087;SDS011;63664;44.868;40.600;2023-03-23T03:57:41;17.08;;;8.02;;
75087;SDS011;63664;44.868;40.600;2023-03-23T04:00:28;21.75;;;8.88;;
75087;SDS011;63664;44.868;40.600;2023-03-23T04:02:57;15.98;;;7.78;;
75087;SDS011;63664;44.868;40.600;2023-03-23T04:05:51;19.98;;;9.25;;
75087;SDS011;63664;44.868;40.600;2023-03-23T04:08:18;13.93;;;7.88;;
75087;SDS011;63664;44.868;40.600;2023-03-23T04:10:44;19.13;;;8.57;;
75087;SDS011;63664;44.868;40.600;2023-03-23T04:13:16;13.18;;;7.63;;
75087;SDS011;63664;44.868;40.600;2023-03-23T04:16:02;17.25;;;7.80;;
75087;SDS011;63664;44.868;40.600;2023-03-23T04:18:31;17.77;;;8.73;;
75087;SDS011;63664;44.868;40.600;2023-03-23T04:21:01;19.00;;;9.35;;
75087;SDS011;63664;44.868;40.600;2023-03-23T04:23:29;20.17;;;9.48;;
75087;SDS011;63664;44.868;40.600;2023-03-23T04:26:04;21.05;;;9.57;;
75087;SDS011;63664;44.868;40.600;2023-03-23T04:28:40;18.60;;;9.20;;
75087;SDS011;63664;44.868;40.600;2023-03-23T04:31:34;18.63;;;9.40;;
75087;SDS011;63664;44.868;40.600;2023-03-23T04:34:24;21.55;;;9.07;;
75087;SDS011;63664;44.868;40.600;2023-03-23T04:36:52;16.65;;;8.98;;
75087;SDS011;63664;44.868;40.600;2023-03-23T04:39:28;28.27;;;10.52;;
75087;SDS011;63664;44.868;40.600;2023-03-23T04:42:05;18.67;;;9.68;;
75087;SDS011;63664;44.868;40.600;2023-03-23T04:44:53;24.00;;;9.40;;
75087;SDS011;63664;44.868;40.600;2023-03-23T04:47:34;22.80;;;9.70;;
75087;SDS011;63664;44.868;40.600;2023-03-23T04:50:17;16.30;;;10.50;;
75087;SDS011;63664;44.868;40.600;2023-03-23T04:52:47;19.98;;;11.40;;
75087;SDS011;63664;44.868;40.600;2023-03-23T04:55:18;22.48;;;10.10;;
75087;SDS011;63664;44.868;40.600;2023-03-23T04:57:53;24.10;;;11.32;;
75087;SDS011;63664;44.868;40.600;2023-03-23T05:00:35;21.55;;;11.10;;
75087;SDS011;63664;44.868;40.600;2023-03-23T05:03:03;24.88;;;11.35;;
75087;SDS011;63664;44.868;40.600;2023-03-23T05:05:33;22.85;;;11.20;;
75087;SDS011;63664;44.868;40.600;2023-03-23T05:08:10;26.70;;;12.15;;
75087;SDS011;63664;44.868;40.600;2023-03-23T05:10:39;22.65;;;10.52;;
75087;SDS011;63664;44.868;40.600;2023-03-23T05:13:16;22.42;;;10.63;;
75087;SDS011;63664;44.868;40.600;2023-03-23T05:15:49;23.17;;;11.27;;
75087;SDS011;63664;44.868;40.600;2023-03-23T05:18:16;23.15;;;11.20;;
75087;SDS011;63664;44.868;40.600;2023-03-23T05:20:43;21.15;;;11.65;;
75087;SDS011;63664;44.868;40.600;2023-03-23T05:23:20;23.15;;;11.57;;
75087;SDS011;63664;44.868;40.600;2023-03-23T05:25:58;25.73;;;11.60;;
75087;SDS011;63664;44.868;40.600;2023-03-23T05:28:28;24.27;;;11.80;;
75087;SDS011;63664;44.868;40.600;2023-03-23T05:31:11;23.90;;;11.02;;
75087;SDS011;63664;44.868;40.600;2023-03-23T05:33:38;23.83;;;10.30;;
75087;SDS011;63664;44.868;40.600;2023-03-23T05:36:20;26.58;;;10.50;;
75087;SDS011;63664;44.868;40.600;2023-03-23T05:39:11;22.00;;;11.45;;
75087;SDS011;63664;44.868;40.600;2023-03-23T05:42:10;21.10;;;10.98;;
75087;SDS011;63664;44.868;40.600;2023-03-23T05:44:55;33.25;;;11.77;;
75087;SDS011;63664;44.868;40.600;2023-03-23T05:47:22;21.27;;;11.30;;
75087;SDS011;63664;44.868;40.600;2023-03-23T05:49:58;26.38;;;11.68;;
75087;SDS011;63664;44.868;40.600;2023-03-23T05:52:30;22.17;;;11.20;;
75087;SDS011;63664;44.868;40.600;2023-03-23T05:54:59;27.83;;;11.52;;
75087;SDS011;63664;44.868;40.600;2023-03-23T05:57:32;22.95;;;11.15;;
75087;SDS011;63664;44.868;40.600;2023-03-23T06:00:07;25.27;;;11.80;;
75087;SDS011;63664;44.868;40.600;2023-03-23T06:02:40;23.90;;;11.98;;
75087;SDS011;63664;44.868;40.600;2023-03-23T06:05:14;28.85;;;12.77;;
75087;SDS011;63664;44.868;40.600;2023-03-23T06:07:46;25.90;;;12.18;;
75087;SDS011;63664;44.868;40.600;2023-03-23T06:10:15;23.77;;;11.45;;
75087;SDS011;63664;44.868;40.600;2023-03-23T06:12:46;22.52;;;11.50;;
75087;SDS011;63664;44.868;40.600;2023-03-23T06:15:36;25.02;;;11.88;;
75087;SDS011;63664;44.868;40.600;2023-03-23T06:18:26;23.27;;;11.40;;
75087;SDS011;63664;44.868;40.600;2023-03-23T06:21:13;25.75;;;12.38;;
75087;SDS011;63664;44.868;40.600;2023-03-23T06:24:07;23.23;;;11.77;;
75087;SDS011;63664;44.868;40.600;2023-03-23T06:26:36;22.23;;;10.95;;
75087;SDS011;63664;44.868;40.600;2023-03-23T06:29:12;24.30;;;11.27;;
75087;SDS011;63664;44.868;40.600;2023-03-23T06:31:48;28.35;;;12.35;;
75087;SDS011;63664;44.868;40.600;2023-03-23T06:34:20;22.95;;;12.73;;
75087;SDS011;63664;44.868;40.600;2023-03-23T06:37:21;26.00;;;12.10;;
75087;SDS011;63664;44.868;40.600;2023-03-23T06:40:06;21.13;;;10.68;;
75087;SDS011;63664;44.868;40.600;2023-03-23T06:42:42;23.27;;;11.10;;
75087;SDS011;63664;44.868;40.600;2023-03-23T06:45:23;25.15;;;10.05;;
75087;SDS011;63664;44.868;40.600;2023-03-23T06:47:59;18.95;;;10.85;;
75087;SDS011;63664;44.868;40.600;2023-03-23T06:50:35;25.10;;;11.05;;
75087;SDS011;63664;44.868;40.600;2023-03-23T06:53:04;24.00;;;11.95;;
75087;SDS011;63664;44.868;40.600;2023-03-23T06:55:30;24.83;;;11.30;;
75087;SDS011;63664;44.868;40.600;2023-03-23T06:57:57;27.33;;;11.68;;
75087;SDS011;63664;44.868;40.600;2023-03-23T07:00:25;25.17;;;11.18;;
75087;SDS011;63664;44.868;40.600;2023-03-23T07:02:54;23.33;;;12.45;;
75087;SDS011;63664;44.868;40.600;2023-03-23T07:05:24;21.38;;;10.90;;
75087;SDS011;63664;44.868;40.600;2023-03-23T07:07:52;22.13;;;10.60;;
75087;SDS011;63664;44.868;40.600;2023-03-23T07:10:32;24.35;;;11.40;;
75087;SDS011;63664;44.868;40.600;2023-03-23T07:13:03;20.45;;;9.68;;
75087;SDS011;63664;44.868;40.600;2023-03-23T07:15:40;18.30;;;9.68;;
75087;SDS011;63664;44.868;40.600;2023-03-23T07:18:10;21.48;;;9.25;;
75087;SDS011;63664;44.868;40.600;2023-03-23T07:20:46;18.23;;;9.38;;
75087;SDS011;63664;44.868;40.600;2023-03-23T07:23:15;23.98;;;9.40;;
75087;SDS011;63664;44.868;40.600;2023-03-23T07:25:50;16.30;;;9.60;;
75087;SDS011;63664;44.868;40.600;2023-03-23T07:28:22;22.90;;;10.02;;
75087;SDS011;63664;44.868;40.600;2023-03-23T07:30:53;17.98;;;10.43;;
75087;SDS011;63664;44.868;40.600;2023-03-23T07:33:20;20.77;;;10.25;;
75087;SDS011;63664;44.868;40.600;2023-03-23T07:35:50;17.80;;;9.48;;
75087;SDS011;63664;44.868;40.600;2023-03-23T07:38:21;22.13;;;10.23;;
75087;SDS011;63664;44.868;40.600;2023-03-23T07:40:49;18.52;;;9.77;;
75087;SDS011;63664;44.868;40.600;2023-03-23T07:43:17;18.42;;;9.65;;
75087;SDS011;63664;44.868;40.600;2023-03-23T07:46:10;20.25;;;9.80;;
75087;SDS011;63664;44.868;40.600;2023-03-23T07:48:53;19.90;;;10.13;;
75087;SDS011;63664;44.868;40.600;2023-03-23T07:51:31;16.77;;;9.77;;
75087;SDS011;63664;44.868;40.600;2023-03-23T07:53:58;17.77;;;9.90;;
75087;SDS011;63664;44.868;40.600;2023-03-23T07:56:46;21.08;;;9.63;;
75087;SDS011;63664;44.868;40.600;2023-03-23T07:59:24;21.05;;;9.70;;
75087;SDS011;63664;44.868;40.600;2023-03-23T08:02:00;18.42;;;10.07;;
75087;SDS011;63664;44.868;40.600;2023-03-23T08:04:59;20.73;;;10.25;;
75087;SDS011;63664;44.868;40.600;2023-03-23T08:07:44;18.58;;;9.43;;
75087;SDS011;63664;44.868;40.600;2023-03-23T08:10:22;17.80;;;10.13;;
75087;SDS011;63664;44.868;40.600;2023-03-23T08:12:58;21.90;;;10.93;;
75087;SDS011;63664;44.868;40.600;2023-03-23T08:15:31;26.48;;;10.70;;
75087;SDS011;63664;44.868;40.600;2023-03-23T08:18:06;20.75;;;10.02;;
75087;SDS011;63664;44.868;40.600;2023-03-23T08:20:55;22.15;;;9.73;;
75087;SDS011;63664;44.868;40.600;2023-03-23T08:23:44;19.10;;;9.90;;
75087;SDS011;63664;44.868;40.600;2023-03-23T08:26:32;21.20;;;9.73;;
75087;SDS011;63664;44.868;40.600;2023-03-23T08:29:19;16.27;;;9.27;;
75087;SDS011;63664;44.868;40.600;2023-03-23T08:32:06;20.38;;;10.57;;
75087;SDS011;63664;44.868;40.600;2023-03-23T08:34:47;20.98;;;9.60;;
75087;SDS011;63664;44.868;40.600;2023-03-23T08:37:46;19.02;;;9.75;;
75087;SDS011;63664;44.868;40.600;2023-03-23T08:40:35;22.77;;;9.63;;
75087;SDS011;63664;44.868;40.600;2023-03-23T08:43:34;17.60;;;9.25;;
75087;SDS011;63664;44.868;40.600;2023-03-23T08:46:30;17.25;;;9.57;;
75087;SDS011;63664;44.868;40.600;2023-03-23T08:49:23;19.23;;;9.82;;
75087;SDS011;63664;44.868;40.600;2023-03-23T08:52:14;23.52;;;9.30;;
75087;SDS011;63664;44.868;40.600;2023-03-23T08:54:54;18.67;;;9.13;;
75087;SDS011;63664;44.868;40.600;2023-03-23T08:57:54;19.95;;;9.05;;
75087;SDS011;63664;44.868;40.600;2023-03-23T09:00:47;16.95;;;7.80;;
75087;SDS011;63664;44.868;40.600;2023-03-23T09:03:33;15.85;;;9.20;;
75087;SDS011;63664;44.868;40.600;2023-03-23T09:06:38;16.23;;;8.10;;
75087;SDS011;63664;44.868;40.600;2023-03-23T09:09:04;16.55;;;8.55;;
75087;SDS011;63664;44.868;40.600;2023-03-23T09:11:34;18.25;;;9.27;;
75087;SDS011;63664;44.868;40.600;2023-03-23T09:14:02;19.23;;;8.70;;
75087;SDS011;63664;44.868;40.600;2023-03-23T09:16:30;14.75;;;8.60;;
75087;SDS011;63664;44.868;40.600;2023-03-23T09:18:57;19.50;;;8.77;;
75087;SDS011;63664;44.868;40.600;2023-03-23T09:21:27;16.55;;;8.25;;
75087;SDS011;63664;44.868;40.600;2023-03-23T09:23:54;14.85;;;8.82;;
75087;SDS011;63664;44.868;40.600;2023-03-23T09:26:26;15.55;;;8.15;;
75087;SDS011;63664;44.868;40.600;2023-03-23T09:28:52;14.88;;;7.45;;
75087;SDS011;63664;44.868;40.600;2023-03-23T09:31:22;16.33;;;8.45;;
75087;SDS011;63664;44.868;40.600;2023-03-23T09:33:53;15.55;;;9.13;;
75087;SDS011;63664;44.868;40.600;2023-03-23T09:36:25;21.58;;;8.50;;
75087;SDS011;63664;44.868;40.600;2023-03-23T09:38:52;13.70;;;7.50;;
75087;SDS011;63664;44.868;40.600;2023-03-23T09:49:57;16.30;;;7.50;;
75087;SDS011;63664;44.868;40.600;2023-03-23T09:55:05;16.10;;;8.73;;
75087;SDS011;63664;44.868;40.600;2023-03-23T10:05:36;16.67;;;8.85;;
75087;SDS011;63664;44.868;40.600;2023-03-23T10:11:04;19.58;;;8.35;;
75087;SDS011;63664;44.868;40.600;2023-03-23T10:16:28;20.45;;;8.77;;
75087;SDS011;63664;44.868;40.600;2023-03-23T10:19:17;14.73;;;7.93;;
75087;SDS011;63664;44.868;40.600;2023-03-23T10:21:54;15.13;;;9.00;;
75087;SDS011;63664;44.868;40.600;2023-03-23T10:24:35;13.85;;;8.55;;
75087;SDS011;63664;44.868;40.600;2023-03-23T10:27:19;16.05;;;8.60;;
75087;SDS011;63664;44.868;40.600;2023-03-23T10:30:03;18.52;;;7.70;;
75087;SDS011;63664;44.868;40.600;2023-03-23T10:32:58;13.90;;;8.05;;
75087;SDS011;63664;44.868;40.600;2023-03-23T10:35:35;14.57;;;7.95;;
75087;SDS011;63664;44.868;40.600;2023-03-23T10:38:10;13.13;;;7.57;;
75087;SDS011;63664;44.868;40.600;2023-03-23T10:40:49;15.95;;;8.38;;
75087;SDS011;63664;44.868;40.600;2023-03-23T10:43:23;13.95;;;7.78;;
75087;SDS011;63664;44.868;40.600;2023-03-23T10:45:57;12.45;;;7.22;;
75087;SDS011;63664;44.868;40.600;2023-03-23T10:48:31;13.63;;;7.38;;
75087;SDS011;63664;44.868;40.600;2023-03-23T10:51:03;16.35;;;7.85;;
75087;SDS011;63664;44.868;40.600;2023-03-23T10:53:42;14.95;;;7.07;;
75087;SDS011;63664;44.868;40.600;2023-03-23T10:57:01;11.88;;;7.40;;
75087;SDS011;63664;44.868;40.600;2023-03-23T10:59:12;12.00;;;6.90;;
75087;SDS011;63664;44.868;40.600;2023-03-23T11:01:50;14.15;;;6.38;;
75087;SDS011;63664;44.868;40.600;2023-03-23T11:04:22;14.15;;;6.93;;
75087;SDS011;63664;44.868;40.600;2023-03-23T11:06:52;12.95;;;5.82;;
75087;SDS011;63664;44.868;40.600;2023-03-23T11:09:37;15.02;;;5.90;;
75087;SDS011;63664;44.868;40.600;2023-03-23T11:12:21;12.30;;;5.93;;
75087;SDS011;63664;44.868;40.600;2023-03-23T11:14:51;16.38;;;7.07;;
75087;SDS011;63664;44.868;40.600;2023-03-23T11:17:34;12.40;;;6.75;;
75087;SDS011;63664;44.868;40.600;2023-03-23T11:20:09;10.15;;;6.40;;
75087;SDS011;63664;44.868;40.600;2023-03-23T11:22:38;12.70;;;6.38;;
75087;SDS011;63664;44.868;40.600;2023-03-23T11:25:06;9.65;;;5.53;;
75087;SDS011;63664;44.868;40.600;2023-03-23T11:27:43;13.68;;;6.45;;
75087;SDS011;63664;44.868;40.600;2023-03-23T11:32:51;12.20;;;5.47;;
75087;SDS011;63664;44.868;40.600;2023-03-23T11:35:22;8.45;;;5.20;;
75087;SDS011;63664;44.868;40.600;2023-03-23T11:37:56;9.45;;;5.13;;
75087;SDS011;63664;44.868;40.600;2023-03-23T11:40:30;15.95;;;5.68;;
75087;SDS011;63664;44.868;40.600;2023-03-23T11:43:13;11.57;;;6.43;;
75087;SDS011;63664;44.868;40.600;2023-03-23T11:45:46;13.80;;;7.90;;
75087;SDS011;63664;44.868;40.600;2023-03-23T11:56:39;9.52;;;5.28;;
75087;SDS011;63664;44.868;40.600;2023-03-23T11:59:26;10.95;;;6.20;;
75087;SDS011;63664;44.868;40.600;2023-03-23T12:04:58;10.85;;;6.85;;
75087;SDS011;63664;44.868;40.600;2023-03-23T12:10:08;27.40;;;11.80;;
75087;SDS011;63664;44.868;40.600;2023-03-23T12:15:45;8.85;;;5.63;;
75087;SDS011;63664;44.868;40.600;2023-03-23T12:21:11;12.25;;;6.43;;
75087;SDS011;63664;44.868;40.600;2023-03-23T12:26:33;10.25;;;5.88;;
75087;SDS011;63664;44.868;40.600;2023-03-23T12:38:02;15.93;;;6.47;;
75087;SDS011;63664;44.868;40.600;2023-03-23T12:43:33;8.82;;;5.75;;
75087;SDS011;63664;44.868;40.600;2023-03-23T12:54:08;9.98;;;4.78;;
75087;SDS011;63664;44.868;40.600;2023-03-23T12:56:50;12.23;;;5.47;;
75087;SDS011;63664;44.868;40.600;2023-03-23T13:02:05;7.78;;;5.57;;
75087;SDS011;63664;44.868;40.600;2023-03-23T13:04:44;12.48;;;5.20;;
75087;SDS011;63664;44.868;40.600;2023-03-23T13:07:24;11.00;;;5.57;;
75087;SDS011;63664;44.868;40.600;2023-03-23T13:12:59;7.70;;;4.30;;
75087;SDS011;63664;44.868;40.600;2023-03-23T13:21:29;11.23;;;5.95;;
75087;SDS011;63664;44.868;40.600;2023-03-23T13:24:08;15.00;;;6.00;;
75087;SDS011;63664;44.868;40.600;2023-03-23T13:26:41;8.50;;;4.40;;
75087;SDS011;63664;44.868;40.600;2023-03-23T13:29:21;11.45;;;5.50;;
75087;SDS011;63664;44.868;40.600;2023-03-23T13:31:50;9.95;;;4.82;;
75087;SDS011;63664;44.868;40.600;2023-03-23T13:34:19;10.93;;;4.97;;
75087;SDS011;63664;44.868;40.600;2023-03-23T13:37:06;6.95;;;4.28;;
75087;SDS011;63664;44.868;40.600;2023-03-23T13:39:49;14.15;;;4.28;;
75087;SDS011;63664;44.868;40.600;2023-03-23T13:42:24;6.53;;;4.57;;
75087;SDS011;63664;44.868;40.600;2023-03-23T13:47:39;8.52;;;4.68;;
75087;SDS011;63664;44.868;40.600;2023-03-23T13:50:12;10.77;;;4.95;;
75087;SDS011;63664;44.868;40.600;2023-03-23T13:52:50;8.13;;;4.68;;
75087;SDS011;63664;44.868;40.600;2023-03-23T13:55:27;8.30;;;4.05;;
75087;SDS011;63664;44.868;40.600;2023-03-23T13:57:56;8.57;;;4.65;;
75087;SDS011;63664;44.868;40.600;2023-03-23T14:00:44;8.00;;;4.03;;
75087;SDS011;63664;44.868;40.600;2023-03-23T14:03:59;8.80;;;4.22;;
75087;SDS011;63664;44.868;40.600;2023-03-23T14:06:05;12.23;;;4.28;;
75087;SDS011;63664;44.868;40.600;2023-03-23T14:09:04;14.15;;;4.93;;
75087;SDS011;63664;44.868;40.600;2023-03-23T14:11:57;11.70;;;5.07;;
75087;SDS011;63664;44.868;40.600;2023-03-23T14:14:46;8.93;;;4.05;;
75087;SDS011;63664;44.868;40.600;2023-03-23T14:17:39;6.53;;;3.92;;
75087;SDS011;63664;44.868;40.600;2023-03-23T14:20:32;8.77;;;3.83;;
75087;SDS011;63664;44.868;40.600;2023-03-23T14:23:00;9.02;;;3.83;;
75087;SDS011;63664;44.868;40.600;2023-03-23T14:25:30;7.18;;;3.33;;
75087;SDS011;63664;44.868;40.600;2023-03-23T14:28:03;13.48;;;3.88;;
75087;SDS011;63664;44.868;40.600;2023-03-23T14:30:34;10.18;;;3.60;;
75087;SDS011;63664;44.868;40.600;2023-03-23T14:33:10;17.58;;;8.07;;
75087;SDS011;63664;44.868;40.600;2023-03-23T14:35:40;26.33;;;10.52;;
75087;SDS011;63664;44.868;40.600;2023-03-23T14:38:19;10.75;;;5.75;;
75087;SDS011;63664;44.868;40.600;2023-03-23T14:40:50;14.32;;;5.15;;
75087;SDS011;63664;44.868;40.600;2023-03-23T14:43:22;11.95;;;4.47;;
75087;SDS011;63664;44.868;40.600;2023-03-23T14:45:53;7.97;;;3.88;;
75087;SDS011;63664;44.868;40.600;2023-03-23T14:48:28;12.18;;;4.45;;
75087;SDS011;63664;44.868;40.600;2023-03-23T14:50:58;9.38;;;4.15;;
75087;SDS011;63664;44.868;40.600;2023-03-23T14:56:11;11.95;;;4.20;;
75087;SDS011;63664;44.868;40.600;2023-03-23T14:58:47;11.77;;;4.53;;
75087;SDS011;63664;44.868;40.600;2023-03-23T15:01:21;8.05;;;4.10;;
75087;SDS011;63664;44.868;40.600;2023-03-23T15:03:55;8.43;;;4.10;;
75087;SDS011;63664;44.868;40.600;2023-03-23T15:06:31;10.27;;;3.83;;
75087;SDS011;63664;44.868;40.600;2023-03-23T15:09:09;9.35;;;3.97;;
75087;SDS011;63664;44.868;40.600;2023-03-23T15:11:50;13.68;;;5.13;;
75087;SDS011;63664;44.868;40.600;2023-03-23T15:14:32;12.77;;;5.97;;
75087;SDS011;63664;44.868;40.600;2023-03-23T15:17:17;16.75;;;6.45;;
75087;SDS011;63664;44.868;40.600;2023-03-23T15:19:50;17.30;;;6.30;;
75087;SDS011;63664;44.868;40.600;2023-03-23T15:22:20;10.20;;;5.90;;
75087;SDS011;63664;44.868;40.600;2023-03-23T15:25:10;16.98;;;5.93;;
75087;SDS011;63664;44.868;40.600;2023-03-23T15:27:53;14.07;;;5.78;;
75087;SDS011;63664;44.868;40.600;2023-03-23T15:32:51;12.85;;;5.28;;
75087;SDS011;63664;44.868;40.600;2023-03-23T15:35:26;10.30;;;5.43;;
75087;SDS011;63664;44.868;40.600;2023-03-23T15:37:57;8.10;;;5.25;;
75087;SDS011;63664;44.868;40.600;2023-03-23T15:40:34;9.93;;;5.03;;
75087;SDS011;63664;44.868;40.600;2023-03-23T15:43:22;9.98;;;4.85;;
75087;SDS011;63664;44.868;40.600;2023-03-23T15:46:02;9.05;;;4.60;;
75087;SDS011;63664;44.868;40.600;2023-03-23T15:49:17;11.10;;;3.97;;
75087;SDS011;63664;44.868;40.600;2023-03-23T15:51:28;6.22;;;4.30;;
75087;SDS011;63664;44.868;40.600;2023-03-23T15:53:57;15.80;;;4.25;;
75087;SDS011;63664;44.868;40.600;2023-03-23T15:56:24;10.10;;;3.85;;
75087;SDS011;63664;44.868;40.600;2023-03-23T15:58:55;8.30;;;4.22;;
75087;SDS011;63664;44.868;40.600;2023-03-23T16:01:27;10.25;;;5.15;;
75087;SDS011;63664;44.868;40.600;2023-03-23T16:03:59;15.80;;;5.10;;
75087;SDS011;63664;44.868;40.600;2023-03-23T16:06:27;10.52;;;5.28;;
75087;SDS011;63664;44.868;40.600;2023-03-23T16:08:56;9.88;;;5.20;;
75087;SDS011;63664;44.868;40.600;2023-03-23T16:11:24;14.23;;;4.70;;
75087;SDS011;63664;44.868;40.600;2023-03-23T16:13:53;10.85;;;5.15;;
75087;SDS011;63664;44.868;40.600;2023-03-23T16:16:29;10.25;;;5.25;;
75087;SDS011;63664;44.868;40.600;2023-03-23T16:19:04;9.45;;;4.68;;
75087;SDS011;63664;44.868;40.600;2023-03-23T16:21:33;9.23;;;4.75;;
75087;SDS011;63664;44.868;40.600;2023-03-23T16:24:00;10.80;;;4.28;;
75087;SDS011;63664;44.868;40.600;2023-03-23T16:26:32;11.85;;;5.38;;
75087;SDS011;63664;44.868;40.600;2023-03-23T16:29:01;12.18;;;4.68;;
75087;SDS011;63664;44.868;40.600;2023-03-23T16:31:34;12.15;;;4.30;;
75087;SDS011;63664;44.868;40.600;2023-03-23T16:34:01;13.63;;;5.45;;
75087;SDS011;63664;44.868;40.600;2023-03-23T16:36:27;11.35;;;5.00;;
75087;SDS011;63664;44.868;40.600;2023-03-23T16:38:53;17.70;;;5.38;;
75087;SDS011;63664;44.868;40.600;2023-03-23T16:41:22;11.77;;;4.72;;
75087;SDS011;63664;44.868;40.600;2023-03-23T16:43:48;12.25;;;4.32;;
75087;SDS011;63664;44.868;40.600;2023-03-23T16:46:14;19.65;;;4.90;;
75087;SDS011;63664;44.868;40.600;2023-03-23T16:48:44;14.75;;;5.65;;
75087;SDS011;63664;44.868;40.600;2023-03-23T16:51:16;14.20;;;5.32;;
75087;SDS011;63664;44.868;40.600;2023-03-23T16:53:44;11.65;;;4.75;;
75087;SDS011;63664;44.868;40.600;2023-03-23T16:56:11;12.60;;;6.32;;
75087;SDS011;63664;44.868;40.600;2023-03-23T16:58:39;21.67;;;6.68;;
75087;SDS011;63664;44.868;40.600;2023-03-23T17:01:09;19.33;;;6.55;;
75087;SDS011;63664;44.868;40.600;2023-03-23T17:03:38;20.20;;;7.00;;
75087;SDS011;63664;44.868;40.600;2023-03-23T17:06:07;15.45;;;6.45;;
75087;SDS011;63664;44.868;40.600;2023-03-23T17:08:34;17.63;;;6.65;;
75087;SDS011;63664;44.868;40.600;2023-03-23T17:11:02;14.98;;;6.38;;
75087;SDS011;63664;44.868;40.600;2023-03-23T17:13:29;19.58;;;5.47;;